createdAt,value
2022-11-24T00:01:08.797Z,88.16
2022-11-24T00:03:36.208Z,88.19
2022-11-24T00:06:15.028Z,89.19
2022-11-24T00:08:44.147Z,88.70
2022-11-24T00:11:16.262Z,89.00
2022-11-24T00:13:44.289Z,88.89
2022-11-24T00:16:11.409Z,88.82
2022-11-24T00:18:39.648Z,88.69
2022-11-24T00:21:07.433Z,88.81
2022-11-24T00:23:36.689Z,88.83
2022-11-24T00:26:13.436Z,89.22
2022-11-24T00:28:41.955Z,89.75
2022-11-24T00:31:24.832Z,89.73
2022-11-24T00:33:54.104Z,89.67
2022-11-24T00:36:22.346Z,89.87
2022-11-24T00:38:56.502Z,89.87
2022-11-24T00:41:25.349Z,90.08
2022-11-24T00:43:52.823Z,90.34
2022-11-24T00:46:20.417Z,89.52
2022-11-24T00:48:47.848Z,90.13
2022-11-24T00:51:16.508Z,90.50
2022-11-24T00:53:43.962Z,90.55
2022-11-24T00:56:11.977Z,90.50
2022-11-24T00:58:40.978Z,90.58
2022-11-24T01:01:13.265Z,91.42
2022-11-24T01:03:42.881Z,91.72
2022-11-24T01:06:12.793Z,92.11
2022-11-24T01:08:41.228Z,92.29
2022-11-24T01:11:17.299Z,92.35
2022-11-24T01:13:47.806Z,92.27
2022-11-24T01:16:18.600Z,92.74
2022-11-24T01:18:46.378Z,93.18
2022-11-24T01:21:14.199Z,93.39
2022-11-24T01:23:41.222Z,93.70
2022-11-24T01:26:10.920Z,93.99
2022-11-24T01:28:44.853Z,94.20
2022-11-24T01:31:14.893Z,94.39
2022-11-24T01:33:42.296Z,94.36
2022-11-24T01:36:09.133Z,94.81
2022-11-24T01:38:36.102Z,94.19
2022-11-24T01:41:08.244Z,94.59
2022-11-24T01:43:36.466Z,95.05
2022-11-24T01:46:29.175Z,95.31
2022-11-24T01:49:16.776Z,95.89
2022-11-24T01:51:51.626Z,96.11
2022-11-24T01:54:30.454Z,96.71
2022-11-24T01:57:17.244Z,96.17
2022-11-24T01:59:49.115Z,95.95
2022-11-24T02:02:22.127Z,96.39
2022-11-24T02:04:50.853Z,96.38
2022-11-24T02:07:19.147Z,96.15
2022-11-24T02:09:53.087Z,95.80
2022-11-24T02:12:23.313Z,96.64
2022-11-24T02:14:53.295Z,96.24
2022-11-24T02:17:20.915Z,95.99
2022-11-24T02:20:10.048Z,95.25
2022-11-24T02:23:15.518Z,94.41
2022-11-24T02:25:45.497Z,94.57
2022-11-24T02:28:17.258Z,94.72
2022-11-24T02:30:44.786Z,94.07
2022-11-24T02:33:12.567Z,94.22
2022-11-24T02:35:41.442Z,93.43
2022-11-24T02:38:13.427Z,93.31
2022-11-24T02:40:44.408Z,94.24
2022-11-24T02:43:16.150Z,93.33
2022-11-24T02:45:43.280Z,93.67
2022-11-24T02:48:10.178Z,93.93
2022-11-24T02:50:37.976Z,93.52
2022-11-24T02:53:04.788Z,92.40
2022-11-24T02:55:31.940Z,92.17
2022-11-24T02:57:58.918Z,91.93
2022-11-24T03:00:26.789Z,91.72
2022-11-24T03:02:53.670Z,91.19
2022-11-24T03:05:20.510Z,90.96
2022-11-24T03:07:47.501Z,91.08
2022-11-24T03:10:14.331Z,90.21
2022-11-24T03:12:41.261Z,90.32
2022-11-24T03:15:08.543Z,90.48
2022-11-24T03:17:35.553Z,90.86
2022-11-24T03:20:04.987Z,90.39
2022-11-24T03:22:32.441Z,90.09
2022-11-24T03:24:59.193Z,89.88
2022-11-24T03:27:26.052Z,90.10
2022-11-24T03:29:52.922Z,89.89
2022-11-24T03:32:19.758Z,89.28
2022-11-24T03:34:46.585Z,89.64
2022-11-24T03:37:13.444Z,89.89
2022-11-24T03:39:40.248Z,89.54
2022-11-24T03:42:07.282Z,89.19
2022-11-24T03:44:34.298Z,89.31
2022-11-24T03:47:01.505Z,89.23
2022-11-24T03:49:28.254Z,89.78
2022-11-24T03:51:55.116Z,89.81
2022-11-24T03:54:22.014Z,89.90
2022-11-24T03:56:48.817Z,89.98
2022-11-24T03:59:15.828Z,89.81
2022-11-24T04:01:42.692Z,89.83
2022-11-24T04:04:11.796Z,90.18
2022-11-24T04:06:39.008Z,90.17
2022-11-24T04:09:06.106Z,90.99
2022-11-24T04:11:32.968Z,90.22
2022-11-24T04:13:59.730Z,90.99
2022-11-24T04:16:26.709Z,90.88
2022-11-24T04:18:53.919Z,91.24
2022-11-24T04:21:21.222Z,90.35
2022-11-24T04:23:48.060Z,90.70
2022-11-24T04:26:15.031Z,91.22
2022-11-24T04:28:42.721Z,90.74
2022-11-24T04:31:09.785Z,91.02
2022-11-24T04:33:36.669Z,90.93
2022-11-24T04:36:04.060Z,90.84
2022-11-24T04:39:24.932Z,90.17
2022-11-24T04:41:18.363Z,90.78
2022-11-24T04:43:45.120Z,90.30
2022-11-24T04:46:12.088Z,90.20
2022-11-24T04:48:38.921Z,90.25
2022-11-24T04:51:06.708Z,89.79
2022-11-24T04:53:33.664Z,90.33
2022-11-24T04:56:05.407Z,90.59
2022-11-24T04:58:32.893Z,90.42
2022-11-24T05:01:00.096Z,89.98
2022-11-24T05:03:26.851Z,89.94
2022-11-24T05:05:53.750Z,90.21
2022-11-24T05:08:20.473Z,89.57
2022-11-24T05:10:47.276Z,90.30
2022-11-24T05:13:14.618Z,90.09
2022-11-24T05:15:42.403Z,89.99
2022-11-24T05:18:12.684Z,90.29
2022-11-24T05:20:39.496Z,90.04
2022-11-24T05:23:08.492Z,90.12
2022-11-24T05:25:35.908Z,90.33
2022-11-24T05:28:04.164Z,90.70
2022-11-24T05:30:32.479Z,90.52
2022-11-24T05:32:59.288Z,90.69
2022-11-24T05:35:26.184Z,90.25
2022-11-24T05:37:53.857Z,90.47
2022-11-24T05:40:20.556Z,90.42
2022-11-24T05:42:48.368Z,89.74
2022-11-24T05:45:18.138Z,89.96
2022-11-24T05:47:45.532Z,89.82
2022-11-24T05:50:14.909Z,89.27
2022-11-24T05:52:42.045Z,89.80
2022-11-24T05:55:10.460Z,89.54
2022-11-24T05:57:37.473Z,89.22
2022-11-24T06:00:08.808Z,89.32
2022-11-24T06:02:41.936Z,89.21
2022-11-24T06:05:09.168Z,89.37
2022-11-24T06:07:36.246Z,88.55
2022-11-24T06:10:05.163Z,88.21
2022-11-24T06:12:33.710Z,88.60
2022-11-24T06:15:00.434Z,89.15
2022-11-24T06:17:27.501Z,88.65
2022-11-24T06:19:54.251Z,88.54
2022-11-24T06:22:21.234Z,88.92
2022-11-24T06:24:48.109Z,88.32
2022-11-24T06:27:14.869Z,87.83
2022-11-24T06:29:41.805Z,90.45
2022-11-24T06:32:09.287Z,88.33
2022-11-24T06:34:36.970Z,88.20
2022-11-24T06:37:04.255Z,88.05
2022-11-24T06:39:31.059Z,88.07
2022-11-24T06:41:57.865Z,88.09
2022-11-24T06:44:24.808Z,87.71
2022-11-24T06:46:51.706Z,88.08
2022-11-24T06:49:18.998Z,87.89
2022-11-24T06:51:46.030Z,87.69
2022-11-24T06:54:18.328Z,87.52
2022-11-24T06:56:45.296Z,87.54
2022-11-24T06:59:20.709Z,87.56
2022-11-24T07:01:48.115Z,86.78
2022-11-24T07:04:15.608Z,86.84
2022-11-24T07:06:43.446Z,86.84
2022-11-24T07:09:11.898Z,86.45
2022-11-24T07:11:40.402Z,86.48
2022-11-24T07:14:07.738Z,86.13
2022-11-24T07:16:34.627Z,86.20
2022-11-24T07:19:01.504Z,86.06
2022-11-24T07:21:29.549Z,85.91
2022-11-24T07:23:58.050Z,85.82
2022-11-24T07:26:26.232Z,85.36
2022-11-24T07:28:53.060Z,86.01
2022-11-24T07:31:22.253Z,85.24
2022-11-24T07:33:50.250Z,85.23
2022-11-24T07:36:17.480Z,85.09
2022-11-24T07:38:44.319Z,85.30
2022-11-24T07:41:13.462Z,85.73
2022-11-24T07:43:41.079Z,85.93
2022-11-24T07:46:11.799Z,85.55
2022-11-24T07:48:39.099Z,85.76
2022-11-24T07:51:06.798Z,85.66
2022-11-24T07:53:34.361Z,86.31
2022-11-24T07:56:03.469Z,86.16
2022-11-24T07:58:33.438Z,86.42
2022-11-24T08:01:08.785Z,87.57
2022-11-24T08:03:35.945Z,86.88
2022-11-24T08:08:49.744Z,88.86
2022-11-24T08:11:18.078Z,89.59
2022-11-24T08:13:44.969Z,89.77
2022-11-24T08:16:14.188Z,90.49
2022-11-24T08:18:42.665Z,89.85
2022-11-24T08:21:13.733Z,90.72
2022-11-24T08:23:41.116Z,91.52
2022-11-24T08:26:13.996Z,92.08
2022-11-24T08:28:40.867Z,91.50
2022-11-24T08:31:18.772Z,92.20
2022-11-24T08:33:46.894Z,92.76
2022-11-24T08:36:16.646Z,92.96
2022-11-24T08:38:44.496Z,93.56
2022-11-24T08:41:14.617Z,93.45
2022-11-24T08:43:41.746Z,94.06
2022-11-24T08:46:12.277Z,94.41
2022-11-24T08:48:39.642Z,95.13
2022-11-24T08:51:11.538Z,95.49
2022-11-24T08:53:39.247Z,96.05
2022-11-24T08:56:08.193Z,95.20
2022-11-24T08:58:35.711Z,95.57
2022-11-24T09:01:05.541Z,95.88
2022-11-24T09:03:32.662Z,97.08
2022-11-24T09:05:59.458Z,96.42
2022-11-24T09:08:26.478Z,96.14
2022-11-24T09:10:53.262Z,97.02
2022-11-24T09:13:20.069Z,97.63
2022-11-24T09:15:46.951Z,98.01
2022-11-24T09:18:13.773Z,97.89
2022-11-24T09:23:25.014Z,98.50
2022-11-24T09:25:51.972Z,98.18
2022-11-24T09:28:18.804Z,98.50
2022-11-24T09:30:45.571Z,98.53
2022-11-24T09:33:12.364Z,99.04
2022-11-24T09:35:39.078Z,98.89
2022-11-24T09:38:05.935Z,99.79
2022-11-24T09:40:33.240Z,99.97
2022-11-24T09:43:06.655Z,100.00
2022-11-24T09:46:05.585Z,99.76
2022-11-24T09:48:54.729Z,100.00
2022-11-24T09:51:25.366Z,99.74
2022-11-24T09:53:59.209Z,100.00
2022-11-24T09:56:33.435Z,99.45
2022-11-24T09:59:11.023Z,100.00
2022-11-24T10:01:41.845Z,99.19
2022-11-24T10:04:18.860Z,99.80
2022-11-24T10:07:01.161Z,99.61
2022-11-24T10:09:49.162Z,99.38
2022-11-24T10:12:49.098Z,99.54
2022-11-24T10:15:53.293Z,99.48
2022-11-24T10:18:46.471Z,99.96
2022-11-24T10:21:26.343Z,100.00
2022-11-24T10:24:27.091Z,99.87
2022-11-24T10:27:02.511Z,100.00
2022-11-24T10:29:29.297Z,100.00
2022-11-24T10:31:57.009Z,99.88
2022-11-24T10:34:37.305Z,100.00
2022-11-24T10:37:18.013Z,98.27
2022-11-24T10:39:59.716Z,99.97
2022-11-24T10:42:28.867Z,99.88
2022-11-24T10:45:08.889Z,99.77
2022-11-24T10:47:35.965Z,100.00
2022-11-24T10:50:06.329Z,100.00
2022-11-24T10:52:41.387Z,100.00
2022-11-24T10:55:08.519Z,99.18
2022-11-24T10:57:39.317Z,99.50
2022-11-24T11:00:31.150Z,100.00
2022-11-24T11:03:34.011Z,100.00
2022-11-24T11:06:12.224Z,100.00
2022-11-24T11:08:40.729Z,99.09
2022-11-24T11:11:20.762Z,100.00
2022-11-24T11:13:59.775Z,99.47
2022-11-24T11:16:40.571Z,99.81
2022-11-24T11:20:01.558Z,99.98
2022-11-24T11:22:32.506Z,99.83
2022-11-24T11:25:33.738Z,99.72
2022-11-24T11:28:19.279Z,100.00
2022-11-24T11:31:16.633Z,100.00
2022-11-24T11:34:03.727Z,100.00
2022-11-24T11:36:41.317Z,100.00
2022-11-24T11:39:22.270Z,100.00
2022-11-24T11:41:53.861Z,100.00
2022-11-24T11:44:23.653Z,100.00
2022-11-24T11:46:50.482Z,100.00
2022-11-24T11:49:17.512Z,100.00
2022-11-24T11:55:11.424Z,100.00
2022-11-24T11:57:58.374Z,100.00
2022-11-24T12:00:25.182Z,100.00
2022-11-24T12:03:12.548Z,100.00
2022-11-24T12:05:51.168Z,100.00
2022-11-24T12:09:03.248Z,100.00
2022-11-24T12:11:43.008Z,100.00
2022-11-24T12:14:30.713Z,100.00
2022-11-24T12:17:04.640Z,100.00
2022-11-24T12:19:49.035Z,100.00
2022-11-24T12:22:33.567Z,100.00
2022-11-24T12:25:35.428Z,100.00
2022-11-24T12:28:06.161Z,100.00
2022-11-24T12:30:59.186Z,100.00
2022-11-24T12:33:55.366Z,100.00
2022-11-24T12:36:53.248Z,100.00
2022-11-24T12:39:32.564Z,100.00
2022-11-24T12:42:38.091Z,100.00
2022-11-24T12:45:13.209Z,100.00
2022-11-24T12:47:58.193Z,100.00
2022-11-24T12:50:29.245Z,100.00
2022-11-24T12:53:19.261Z,100.00
2022-11-24T12:55:47.108Z,100.00
2022-11-24T12:58:21.044Z,100.00
2022-11-24T13:01:21.736Z,100.00
2022-11-24T13:03:56.256Z,100.00
2022-11-24T13:06:26.325Z,100.00
2022-11-24T13:08:53.320Z,100.00
2022-11-24T13:11:23.135Z,100.00
2022-11-24T13:14:14.957Z,100.00
2022-11-24T13:17:33.729Z,100.00
2022-11-24T13:20:20.259Z,100.00
2022-11-24T13:22:56.792Z,100.00
2022-11-24T13:25:24.668Z,100.00
2022-11-24T13:28:05.771Z,100.00
2022-11-24T13:30:35.173Z,100.00
2022-11-24T13:33:15.825Z,100.00
2022-11-24T13:36:03.471Z,100.00
2022-11-24T13:38:43.527Z,100.00
2022-11-24T13:41:32.202Z,100.00
2022-11-24T13:44:14.013Z,100.00
2022-11-24T13:47:05.572Z,100.00
2022-11-24T13:49:40.800Z,100.00
2022-11-24T13:52:44.618Z,100.00
2022-11-24T13:55:14.332Z,100.00
2022-11-24T13:57:45.476Z,100.00
2022-11-24T14:00:37.071Z,100.00
2022-11-24T14:03:29.921Z,100.00
2022-11-24T14:05:57.669Z,100.00
2022-11-24T14:08:28.310Z,100.00
2022-11-24T14:10:57.632Z,100.00
2022-11-24T14:13:27.258Z,100.00
2022-11-24T14:16:09.080Z,100.00
2022-11-24T14:18:38.581Z,100.00
2022-11-24T14:21:20.660Z,100.00
2022-11-24T14:23:57.652Z,100.00
2022-11-24T14:26:33.912Z,100.00
2022-11-24T14:29:15.472Z,100.00
2022-11-24T14:31:52.164Z,100.00
2022-11-24T14:34:21.909Z,100.00
2022-11-24T14:36:49.773Z,100.00
2022-11-24T14:39:18.745Z,100.00
2022-11-24T14:42:07.735Z,100.00
2022-11-24T14:44:35.052Z,100.00
2022-11-24T14:47:24.505Z,100.00
2022-11-24T14:49:55.432Z,100.00
2022-11-24T14:52:23.775Z,100.00
2022-11-24T14:55:07.520Z,99.61
2022-11-24T14:57:44.656Z,99.69
2022-11-24T15:00:25.278Z,99.97
2022-11-24T15:03:13.339Z,100.00
2022-11-24T15:05:52.150Z,100.00
2022-11-24T15:08:19.086Z,100.00
2022-11-24T15:10:46.701Z,100.00
2022-11-24T15:13:21.164Z,100.00
2022-11-24T15:16:03.188Z,100.00
2022-11-24T15:18:42.885Z,100.00
2022-11-24T15:21:15.744Z,100.00
2022-11-24T15:24:06.386Z,100.00
2022-11-24T15:26:36.922Z,100.00
2022-11-24T15:29:09.430Z,100.00
2022-11-24T15:31:37.818Z,100.00
2022-11-24T15:34:04.816Z,100.00
2022-11-24T15:36:32.065Z,99.36
2022-11-24T15:38:59.095Z,99.21
2022-11-24T15:41:31.985Z,99.14
2022-11-24T15:43:59.395Z,99.50
2022-11-24T15:46:31.384Z,99.41
2022-11-24T15:48:58.327Z,98.46
2022-11-24T15:51:26.436Z,98.35
2022-11-24T15:54:00.273Z,99.24
2022-11-24T15:56:36.016Z,99.51
2022-11-24T15:59:04.146Z,99.75
2022-11-24T16:01:33.870Z,99.81
2022-11-24T16:04:03.285Z,99.97
2022-11-24T16:06:30.162Z,99.79
2022-11-24T16:08:57.039Z,100.00
2022-11-24T16:11:25.505Z,100.00
2022-11-24T16:13:54.204Z,100.00
2022-11-24T16:16:23.489Z,100.00
2022-11-24T16:18:51.291Z,100.00
2022-11-24T16:21:18.354Z,100.00
2022-11-24T16:23:45.110Z,100.00
2022-11-24T16:26:12.223Z,100.00
2022-11-24T16:28:39.419Z,99.93
2022-11-24T16:31:06.431Z,99.55
2022-11-24T16:33:33.280Z,99.31
2022-11-24T16:36:00.689Z,99.19
2022-11-24T16:38:28.270Z,98.99
2022-11-24T16:40:56.581Z,99.32
2022-11-24T16:43:23.697Z,99.36
2022-11-24T16:46:18.051Z,99.75
2022-11-24T16:48:46.478Z,99.79
2022-11-24T16:51:14.562Z,99.93
2022-11-24T16:53:41.690Z,99.26
2022-11-24T16:56:09.657Z,99.13
2022-11-24T16:58:40.920Z,98.74
2022-11-24T17:01:13.422Z,98.40
2022-11-24T17:03:41.471Z,98.83
2022-11-24T17:06:11.597Z,98.40
2022-11-24T17:08:40.555Z,98.19
2022-11-24T17:11:10.073Z,97.95
2022-11-24T17:13:37.808Z,97.93
2022-11-24T17:16:13.886Z,96.55
2022-11-24T17:18:42.024Z,96.87
2022-11-24T17:21:17.237Z,96.47
2022-11-24T17:23:45.235Z,96.59
2022-11-24T17:26:15.605Z,96.50
2022-11-24T17:28:43.757Z,96.29
2022-11-24T17:31:26.504Z,96.97
2022-11-24T17:33:56.488Z,96.07
2022-11-24T17:36:24.017Z,95.91
2022-11-24T17:38:51.519Z,95.44
2022-11-24T17:41:22.599Z,95.43
2022-11-24T17:43:55.160Z,95.72
2022-11-24T17:46:27.301Z,96.17
2022-11-24T17:48:56.277Z,96.07
2022-11-24T17:51:26.398Z,96.16
2022-11-24T17:53:55.488Z,95.12
2022-11-24T17:56:25.268Z,94.65
2022-11-24T17:58:54.341Z,94.64
2022-11-24T18:01:22.859Z,95.17
2022-11-24T18:03:53.836Z,95.07
2022-11-24T18:06:22.432Z,94.94
2022-11-24T18:08:50.077Z,95.02
2022-11-24T18:11:25.913Z,94.73
2022-11-24T18:14:00.783Z,95.55
2022-11-24T18:16:35.126Z,95.62
2022-11-24T18:19:09.078Z,95.50
2022-11-24T18:21:42.115Z,95.62
2022-11-24T18:24:13.883Z,95.89
2022-11-24T18:26:44.292Z,96.11
2022-11-24T18:29:12.682Z,95.91
2022-11-24T18:31:39.805Z,95.41
2022-11-24T18:34:07.374Z,95.47
2022-11-24T18:36:35.936Z,93.57
2022-11-24T18:39:08.570Z,94.45
2022-11-24T18:41:37.285Z,94.15
2022-11-24T18:44:05.613Z,94.63
2022-11-24T18:46:33.882Z,94.24
2022-11-24T18:49:03.030Z,94.64
2022-11-24T18:51:31.077Z,94.64
2022-11-24T18:53:58.863Z,95.07
2022-11-24T18:56:27.360Z,95.64
2022-11-24T18:58:57.328Z,95.85
2022-11-24T19:01:28.798Z,95.65
2022-11-24T19:04:01.448Z,96.27
2022-11-24T19:06:32.756Z,96.14
2022-11-24T19:09:07.199Z,96.19
2022-11-24T19:11:38.046Z,96.86
2022-11-24T19:14:09.530Z,96.81
2022-11-24T19:16:41.270Z,97.02
2022-11-24T19:19:12.447Z,97.50
2022-11-24T19:21:41.199Z,97.44
2022-11-24T19:24:11.309Z,97.92
2022-11-24T19:26:40.690Z,98.22
2022-11-24T19:29:09.424Z,96.88
2022-11-24T19:31:39.716Z,96.67
2022-11-24T19:34:07.885Z,95.30
2022-11-24T19:36:35.841Z,95.16
2022-11-24T19:39:03.417Z,95.73
2022-11-24T19:41:32.896Z,95.76
2022-11-24T19:44:00.584Z,95.45
2022-11-24T19:46:29.794Z,94.81
2022-11-24T19:49:01.577Z,94.11
2022-11-24T19:51:40.803Z,94.29
2022-11-24T19:54:12.810Z,93.90
2022-11-24T19:56:40.633Z,93.60
2022-11-24T19:59:08.956Z,93.15
2022-11-24T20:01:40.321Z,93.43
2022-11-24T20:04:11.434Z,93.73
2022-11-24T20:06:41.578Z,92.69
2022-11-24T20:09:12.826Z,93.49
2022-11-24T20:11:41.993Z,93.99
2022-11-24T20:14:16.991Z,93.29
2022-11-24T20:16:44.887Z,93.20
2022-11-24T20:19:14.852Z,92.96
2022-11-24T20:21:44.301Z,93.24
2022-11-24T20:24:15.197Z,92.80
2022-11-24T20:26:47.420Z,92.01
2022-11-24T20:29:17.740Z,92.01
2022-11-24T20:31:54.880Z,92.95
2022-11-24T20:34:25.834Z,92.19
2022-11-24T20:36:53.561Z,91.76
2022-11-24T20:39:24.500Z,91.38
2022-11-24T20:41:53.211Z,91.66
2022-11-24T20:44:22.209Z,91.77
2022-11-24T20:46:52.052Z,91.71
2022-11-24T20:49:20.506Z,92.37
2022-11-24T20:51:48.902Z,92.72
2022-11-24T20:54:18.863Z,92.83
2022-11-24T20:56:48.072Z,92.68
2022-11-24T20:59:18.393Z,92.61
2022-11-24T21:01:46.836Z,92.42
2022-11-24T21:04:20.224Z,91.50
2022-11-24T21:06:48.389Z,91.33
2022-11-24T21:09:16.093Z,91.34
2022-11-24T21:11:43.697Z,91.15
2022-11-24T21:14:11.968Z,91.41
2022-11-24T21:16:42.520Z,91.45
2022-11-24T21:19:15.888Z,92.16
2022-11-24T21:21:44.843Z,91.10
2022-11-24T21:24:14.750Z,90.82
2022-11-24T21:26:43.878Z,90.43
2022-11-24T21:29:15.335Z,90.89
2022-11-24T21:31:42.695Z,90.86
2022-11-24T21:34:14.349Z,91.15
2022-11-24T21:36:41.746Z,90.64
2022-11-24T21:39:10.728Z,90.70
2022-11-24T21:41:38.375Z,89.88
2022-11-24T21:44:05.260Z,90.33
2022-11-24T21:46:32.123Z,90.32
2022-11-24T21:48:58.920Z,89.24
2022-11-24T21:51:25.982Z,89.86
2022-11-24T21:53:53.791Z,89.45
2022-11-24T21:56:22.729Z,88.81
2022-11-24T21:58:55.510Z,89.46
2022-11-24T22:01:25.109Z,89.22
2022-11-24T22:03:52.043Z,88.98
2022-11-24T22:06:20.801Z,89.01
2022-11-24T22:08:49.054Z,88.11
2022-11-24T22:11:24.516Z,89.15
2022-11-24T22:13:52.775Z,88.98
2022-11-24T22:16:22.461Z,88.77
2022-11-24T22:18:50.312Z,88.17
2022-11-24T22:21:20.641Z,88.59
2022-11-24T22:23:51.634Z,89.04
2022-11-24T22:26:21.425Z,88.70
2022-11-24T22:28:49.512Z,89.01
2022-11-24T22:31:31.016Z,89.02
2022-11-24T22:33:59.443Z,89.12
2022-11-24T22:36:29.370Z,88.96
2022-11-24T22:38:58.465Z,89.33
2022-11-24T22:41:26.133Z,89.55
2022-11-24T22:43:53.656Z,89.53
2022-11-24T22:46:23.357Z,88.48
2022-11-24T22:48:52.375Z,88.20
2022-11-24T22:51:23.574Z,88.75
2022-11-24T22:53:56.876Z,88.45
2022-11-24T22:56:25.225Z,88.08
2022-11-24T22:58:51.935Z,88.59
2022-11-24T23:01:21.807Z,88.33
2022-11-24T23:03:49.738Z,87.32
2022-11-24T23:06:20.481Z,87.48
2022-11-24T23:08:50.168Z,87.66
2022-11-24T23:11:36.583Z,87.80
2022-11-24T23:14:07.633Z,86.86
2022-11-24T23:16:34.603Z,87.08
2022-11-24T23:19:01.400Z,86.50
2022-11-24T23:21:30.800Z,86.56
2022-11-24T23:24:22.910Z,86.79
2022-11-24T23:26:49.741Z,86.33
2022-11-24T23:29:16.469Z,86.46
2022-11-24T23:31:44.649Z,86.02
2022-11-24T23:34:11.641Z,85.86
2022-11-24T23:36:39.492Z,85.99
2022-11-24T23:39:09.192Z,85.69
2022-11-24T23:41:36.221Z,85.88
2022-11-24T23:44:03.293Z,85.85
2022-11-24T23:46:30.506Z,86.79
2022-11-24T23:48:57.405Z,86.10
2022-11-24T23:51:27.401Z,86.26
2022-11-24T23:53:55.852Z,85.37
2022-11-24T23:56:25.313Z,85.26
2022-11-24T23:58:52.220Z,85.66
